Time;durP1;ratioP1;P1;durP2;ratioP2;P2;SDS_P1;SDS_P2;PMS_P1;PMS_P2;Temp;Humidity;BMP_temperature;BMP_pressure;BME280_temperature;BME280_humidity;BME280_pressure;Samples;Min_cycle;Max_cycle;Signal;HPM_P1;HPM_P2
2023/11/02 00:01:08;;;;;;;8.00;4.97;;;;;;;11.02;88.68;96539.44;4186724;28;21035;-82
2023/11/02 00:03:25;;;;;;;9.10;4.70;;;;;;;10.98;89.75;96536.31;4178487;28;20691;-82
2023/11/02 00:05:57;;;;;;;7.13;4.10;;;;;;;10.93;89.95;96528.09;4162898;28;20625;-82
2023/11/02 00:08:01;;;;;;;5.67;3.53;;;;;;;10.87;90.46;96520.88;4172693;28;20625;-82
2023/11/02 00:10:04;;;;;;;6.63;4.43;;;;;;;10.79;89.03;96514.72;4154340;28;20721;-82
2023/11/02 00:12:07;;;;;;;6.00;4.03;;;;;;;10.70;89.18;96505.16;4170217;28;20635;-82
2023/11/02 00:14:11;;;;;;;9.13;3.57;;;;;;;10.64;89.26;96502.31;4189550;28;20623;-82
2023/11/02 00:16:15;;;;;;;4.60;3.43;;;;;;;10.61;89.58;96484.34;4204136;28;20646;-82
2023/11/02 00:18:17;;;;;;;6.67;2.83;;;;;;;10.57;90.37;96488.19;4166768;28;20648;-82
2023/11/02 00:20:36;;;;;;;4.30;3.20;;;;;;;10.52;89.69;96480.00;4188596;28;20680;-82
2023/11/02 00:22:44;;;;;;;3.30;2.70;;;;;;;10.49;89.94;96469.84;4160893;28;20656;-82
2023/11/02 00:24:49;;;;;;;6.77;3.60;;;;;;;10.45;90.83;96464.13;4176985;28;20639;-82
2023/11/02 00:26:52;;;;;;;5.40;3.10;;;;;;;10.43;90.40;96466.06;4155043;28;21219;-82
2023/11/02 00:28:55;;;;;;;5.00;3.30;;;;;;;10.40;91.13;96465.50;4168844;28;20667;-82
2023/11/02 00:30:58;;;;;;;3.70;3.10;;;;;;;10.37;91.85;96461.41;4199345;28;20658;-82
2023/11/02 00:33:02;;;;;;;3.40;2.50;;;;;;;10.35;91.60;96455.50;4176638;28;20728;-82
2023/11/02 00:35:06;;;;;;;3.00;2.60;;;;;;;10.31;92.20;96445.50;4175735;28;20681;-82
2023/11/02 00:37:09;;;;;;;5.73;3.10;;;;;;;10.27;91.20;96448.53;4205728;28;20618;-82
2023/11/02 00:39:12;;;;;;;3.40;2.50;;;;;;;10.20;91.28;96448.31;4203313;28;21211;-82
2023/11/02 00:41:16;;;;;;;21.23;4.43;;;;;;;10.15;90.78;96445.31;4175924;28;20660;-82
2023/11/02 00:43:21;;;;;;;3.30;2.77;;;;;;;10.13;91.10;96436.00;4205507;28;21004;-83
2023/11/02 00:45:24;;;;;;;4.80;2.60;;;;;;;10.10;91.77;96431.06;4160155;28;20638;-84
2023/11/02 00:47:28;;;;;;;3.63;2.55;;;;;;;10.05;91.86;96431.50;4183528;28;20631;-84
2023/11/02 00:49:32;;;;;;;3.73;2.87;;;;;;;10.04;91.54;96427.25;4187397;28;20259;-84
2023/11/02 00:51:35;;;;;;;3.27;2.40;;;;;;;10.03;91.54;96420.41;4184878;28;20628;-84
2023/11/02 00:53:42;;;;;;;5.27;2.67;;;;;;;10.01;91.46;96417.13;4188510;28;20658;-84
2023/11/02 00:55:45;;;;;;;4.70;2.90;;;;;;;9.99;91.47;96400.81;4177100;28;21035;-84
2023/11/02 00:57:49;;;;;;;3.00;2.17;;;;;;;9.95;91.63;96401.22;4185494;28;20611;-84
2023/11/02 00:59:52;;;;;;;4.23;2.67;;;;;;;9.91;91.55;96395.47;4157192;28;20711;-84
2023/11/02 01:01:55;;;;;;;3.50;2.63;;;;;;;9.91;91.65;96384.25;4160386;28;20649;-84
2023/11/02 01:04:02;;;;;;;5.00;2.57;;;;;;;9.86;91.58;96382.06;4171233;28;20624;-84
2023/11/02 01:06:13;;;;;;;5.70;2.90;;;;;;;9.85;92.26;96377.00;4167702;28;20628;-84
2023/11/02 01:08:17;;;;;;;5.70;2.40;;;;;;;9.81;91.28;96372.22;4175832;28;20723;-84
2023/11/02 01:10:22;;;;;;;5.00;2.53;;;;;;;9.80;91.93;96365.34;4166973;28;21365;-84
2023/11/02 01:12:31;;;;;;;4.40;2.67;;;;;;;9.77;91.83;96374.25;4158624;28;20613;-84
2023/11/02 01:14:47;;;;;;;7.90;3.53;;;;;;;9.76;92.17;96364.84;4158777;28;20634;-84
2023/11/02 01:16:49;;;;;;;7.10;4.70;;;;;;;9.73;91.71;96359.09;4173970;28;20648;-84
2023/11/02 01:18:52;;;;;;;15.45;7.03;;;;;;;9.68;91.96;96356.09;4172836;28;20632;-84
2023/11/02 01:21:00;;;;;;;12.93;8.40;;;;;;;9.67;92.26;96359.66;4158655;28;20260;-84
2023/11/02 01:23:06;;;;;;;11.23;6.60;;;;;;;9.66;92.70;96351.03;4186013;28;21224;-84
2023/11/02 01:25:11;;;;;;;8.40;5.05;;;;;;;9.64;92.84;96350.34;4171147;28;20226;-84
2023/11/02 01:27:20;;;;;;;3.50;2.40;;;;;;;9.66;93.03;96352.81;4165950;28;20218;-84
2023/11/02 01:29:23;;;;;;;6.40;3.42;;;;;;;9.66;93.37;96352.81;4157734;28;20635;-84
2023/11/02 01:31:26;;;;;;;4.65;2.70;;;;;;;9.66;93.50;96342.41;4168747;28;20227;-84
2023/11/02 01:33:53;;;;;;;3.10;2.55;;;;;;;9.60;92.48;96337.75;4157782;28;20217;-84
2023/11/02 01:35:56;;;;;;;5.00;1.90;;;;;;;9.53;91.60;96323.66;4180141;28;20210;-84
2023/11/02 01:38:00;;;;;;;3.65;2.08;;;;;;;9.45;90.91;96313.16;4182200;28;20730;-84
2023/11/02 01:40:09;;;;;;;5.03;3.67;;;;;;;9.38;91.03;96312.06;4176787;28;20328;-84
2023/11/02 01:42:17;;;;;;;5.68;2.15;;;;;;;9.35;90.69;96303.72;4158040;28;20227;-84
2023/11/02 01:44:22;;;;;;;2.60;1.90;;;;;;;9.33;91.77;96292.66;4162689;28;20210;-84
2023/11/02 01:46:27;;;;;;;2.87;1.63;;;;;;;9.31;92.25;96286.78;4205204;28;20214;-84
2023/11/02 01:48:35;;;;;;;4.30;2.90;;;;;;;9.34;91.82;96276.09;4181917;28;21165;-84
2023/11/02 01:50:46;;;;;;;5.40;2.30;;;;;;;9.29;93.74;96271.31;4167754;28;20644;-84
2023/11/02 01:53:25;;;;;;;3.30;2.00;;;;;;;9.29;93.01;96266.13;4176273;28;20236;-84
2023/11/02 01:55:40;;;;;;;3.47;2.20;;;;;;;9.29;93.49;96268.72;4192929;28;20665;-84
2023/11/02 01:57:51;;;;;;;3.25;2.10;;;;;;;9.33;93.34;96258.84;4162317;28;20722;-84
2023/11/02 02:00:00;;;;;;;2.33;1.88;;;;;;;9.33;93.97;96257.06;4165349;28;20217;-84
2023/11/02 02:02:06;;;;;;;2.40;2.00;;;;;;;9.38;94.55;96246.22;4193474;28;20678;-84
2023/11/02 02:04:16;;;;;;;2.60;2.00;;;;;;;9.37;94.65;96239.38;4158934;28;20207;-84
2023/11/02 02:06:24;;;;;;;7.15;2.13;;;;;;;9.38;94.55;96236.63;4163163;28;20237;-84
2023/11/02 02:08:50;;;;;;;2.38;1.60;;;;;;;9.42;94.97;96235.38;4195847;28;20367;-84
2023/11/02 02:11:02;;;;;;;2.47;1.63;;;;;;;9.45;94.75;96233.31;4160596;28;20214;-84
2023/11/02 02:13:14;;;;;;;6.35;2.10;;;;;;;9.50;95.03;96227.69;4173612;28;20341;-84
2023/11/02 02:15:23;;;;;;;2.10;1.50;;;;;;;9.52;95.31;96223.97;4184568;28;20222;-84
2023/11/02 02:17:29;;;;;;;3.67;1.90;;;;;;;9.55;94.60;96215.06;4161728;28;20631;-84
2023/11/02 02:19:52;;;;;;;2.17;1.73;;;;;;;9.58;95.34;96220.00;4172419;28;20245;-84
2023/11/02 02:21:57;;;;;;;1.95;1.75;;;;;;;9.58;95.41;96214.78;4193314;28;20210;-84
2023/11/02 02:24:04;;;;;;;1.90;1.38;;;;;;;9.60;95.18;96208.44;4185867;28;20214;-84
2023/11/02 02:26:37;;;;;;;2.15;1.45;;;;;;;9.62;95.20;96205.72;4155314;28;20211;-84
2023/11/02 02:29:18;;;;;;;3.47;1.50;;;;;;;9.62;94.87;96200.50;4192133;28;20690;-84
2023/11/02 02:31:52;;;;;;;4.70;1.60;;;;;;;9.62;94.84;96192.69;4190429;28;20233;-84
2023/11/02 02:34:08;;;;;;;2.15;1.45;;;;;;;9.61;95.51;96180.66;4188601;28;20653;-84
2023/11/02 02:36:14;;;;;;;2.00;1.40;;;;;;;9.60;94.18;96181.63;4160555;28;20217;-84
2023/11/02 02:38:19;;;;;;;2.73;1.70;;;;;;;9.59;95.31;96174.78;4161693;28;20252;-84
2023/11/02 02:40:29;;;;;;;4.53;1.70;;;;;;;9.59;95.08;96169.56;4189245;28;20637;-84
2023/11/02 02:42:35;;;;;;;2.60;1.48;;;;;;;9.61;95.01;96167.66;4178198;28;20327;-84
2023/11/02 02:44:39;;;;;;;1.80;1.40;;;;;;;9.59;95.58;96162.59;4183478;28;20695;-84
2023/11/02 02:46:43;;;;;;;3.17;1.53;;;;;;;9.61;95.24;96157.25;4162376;28;20615;-84
2023/11/02 02:48:47;;;;;;;1.95;1.52;;;;;;;9.61;94.90;96149.44;4166770;28;21108;-84
2023/11/02 02:50:57;;;;;;;2.40;1.45;;;;;;;9.62;95.32;96148.47;4186875;28;20205;-84
2023/11/02 02:53:02;;;;;;;5.00;1.50;;;;;;;9.65;95.44;96143.81;4200919;28;20433;-84
2023/11/02 02:55:07;;;;;;;1.97;1.43;;;;;;;9.70;95.82;96144.16;4156306;28;20214;-84
2023/11/02 02:57:09;;;;;;;2.27;1.40;;;;;;;9.73;95.77;96146.47;4177928;28;20612;-84
2023/11/02 02:59:17;;;;;;;3.17;1.23;;;;;;;9.82;95.22;96142.16;4173370;28;21193;-84
2023/11/02 03:01:21;;;;;;;1.95;1.25;;;;;;;9.92;94.78;96141.13;4173726;28;20272;-84
2023/11/02 03:03:26;;;;;;;2.13;1.05;;;;;;;10.03;93.80;96139.16;4151622;28;20283;-84
2023/11/02 03:05:30;;;;;;;1.90;1.33;;;;;;;10.10;94.70;96121.97;4164133;28;20205;-84
2023/11/02 03:07:34;;;;;;;3.42;1.63;;;;;;;10.08;94.35;96110.88;4192538;28;20223;-84
2023/11/02 03:09:39;;;;;;;6.90;1.50;;;;;;;10.04;94.06;96112.16;4160594;28;20258;-84
2023/11/02 03:11:43;;;;;;;2.63;1.45;;;;;;;10.05;93.86;96121.59;4189165;28;21103;-84
2023/11/02 03:13:47;;;;;;;1.88;1.20;;;;;;;10.07;92.07;96106.66;4204294;28;20208;-84
2023/11/02 03:15:52;;;;;;;1.97;0.90;;;;;;;10.20;91.89;96112.28;4189605;28;20240;-84
2023/11/02 03:18:03;;;;;;;2.23;1.10;;;;;;;10.36;90.59;96115.81;4188454;28;20644;-84
2023/11/02 03:20:09;;;;;;;2.75;1.13;;;;;;;10.49;89.40;96094.56;4203418;28;21008;-84
2023/11/02 03:22:14;;;;;;;2.88;1.55;;;;;;;10.60;88.54;96102.97;4203899;28;20212;-84
2023/11/02 03:24:21;;;;;;;3.30;1.30;;;;;;;10.69;89.15;96122.91;4168622;28;20314;-84
2023/11/02 03:26:35;;;;;;;1.27;1.07;;;;;;;10.82;87.99;96129.34;4158396;28;20636;-84
2023/11/02 03:28:46;;;;;;;2.13;1.23;;;;;;;10.87;88.29;96127.06;4185212;28;20721;-84
2023/11/02 03:30:55;;;;;;;4.53;1.30;;;;;;;10.95;88.51;96134.94;4197290;28;21288;-84
2023/11/02 03:33:05;;;;;;;2.80;1.40;;;;;;;11.02;87.69;96128.13;4175930;28;20677;-84
2023/11/02 03:35:14;;;;;;;2.90;1.83;;;;;;;11.09;86.97;96136.97;4183291;28;20635;-84
2023/11/02 03:37:24;;;;;;;2.67;1.40;;;;;;;11.15;87.21;96123.28;4155227;28;20662;-84
2023/11/02 03:39:36;;;;;;;5.00;1.40;;;;;;;11.20;87.01;96128.03;4191076;28;20631;-84
2023/11/02 03:41:54;;;;;;;1.60;1.13;;;;;;;11.25;87.95;96105.75;4173130;28;20740;-84
2023/11/02 03:44:03;;;;;;;1.60;1.10;;;;;;;11.28;87.47;96102.81;4173367;28;20234;-84
2023/11/02 03:46:17;;;;;;;4.00;1.63;;;;;;;11.28;85.70;96089.75;4161650;28;20629;-84
2023/11/02 03:48:29;;;;;;;5.60;1.47;;;;;;;11.31;87.19;96115.53;4177810;28;20686;-84
2023/11/02 03:50:43;;;;;;;2.40;1.50;;;;;;;11.32;87.19;96096.28;4163926;28;20652;-84
2023/11/02 03:52:53;;;;;;;1.90;1.40;;;;;;;11.32;86.42;96076.25;4201783;28;20656;-84
2023/11/02 03:55:07;;;;;;;1.63;1.23;;;;;;;11.35;85.98;96059.44;4174136;28;21069;-84
2023/11/02 03:57:19;;;;;;;2.20;1.30;;;;;;;11.34;86.51;96048.19;4172868;28;20649;-84
2023/11/02 03:59:27;;;;;;;2.10;1.40;;;;;;;11.32;84.96;96044.94;4173529;28;20651;-83
2023/11/02 04:01:38;;;;;;;2.20;1.47;;;;;;;11.37;85.84;96055.69;4172180;28;20633;-84
2023/11/02 04:03:45;;;;;;;2.00;1.20;;;;;;;11.41;85.80;96057.03;4170161;28;20688;-84
2023/11/02 04:05:47;;;;;;;2.30;1.63;;;;;;;11.46;84.94;96046.09;4186878;28;21039;-84
2023/11/02 04:07:59;;;;;;;1.80;1.40;;;;;;;11.49;86.15;96051.03;4207784;28;20626;-84
2023/11/02 04:10:06;;;;;;;1.90;1.40;;;;;;;11.53;85.39;96049.72;4169432;28;20648;-84
2023/11/02 04:12:20;;;;;;;2.50;1.27;;;;;;;11.53;85.93;96041.88;4186791;28;20724;-84
2023/11/02 04:14:25;;;;;;;2.40;1.47;;;;;;;11.56;84.63;96045.03;4175085;28;20692;-84
2023/11/02 04:16:28;;;;;;;2.53;1.30;;;;;;;11.57;86.74;96038.00;4178778;28;20722;-84
2023/11/02 04:18:31;;;;;;;2.33;1.27;;;;;;;11.59;85.23;96036.88;4164054;28;20621;-84
2023/11/02 04:20:35;;;;;;;4.03;1.40;;;;;;;11.60;86.87;96033.25;4195003;28;20687;-82
2023/11/02 04:22:39;;;;;;;2.33;1.73;;;;;;;11.65;85.08;96014.50;4184596;28;21501;-82
2023/11/02 04:24:41;;;;;;;1.93;1.43;;;;;;;11.62;85.75;95999.16;4175482;28;20655;-82
2023/11/02 04:26:44;;;;;;;3.10;1.60;;;;;;;11.61;87.14;95989.72;4163484;28;20686;-82
2023/11/02 04:28:49;;;;;;;1.50;1.20;;;;;;;11.60;86.78;95985.47;4180425;28;20628;-82
2023/11/02 04:30:53;;;;;;;2.20;1.40;;;;;;;11.63;87.02;95975.50;4178373;28;20699;-82
2023/11/02 04:32:56;;;;;;;2.10;1.60;;;;;;;11.64;87.75;95951.03;4198276;28;21178;-82
2023/11/02 04:35:00;;;;;;;2.10;1.60;;;;;;;11.66;87.13;95935.19;4194876;28;20634;-82
2023/11/02 04:37:12;;;;;;;4.93;1.80;;;;;;;11.67;88.19;95923.78;4181371;28;20731;-82
2023/11/02 04:39:16;;;;;;;1.57;1.30;;;;;;;11.65;87.89;95895.22;4193716;28;20615;-82
2023/11/02 04:41:19;;;;;;;2.40;1.37;;;;;;;11.66;88.07;95890.81;4180533;28;21256;-82
2023/11/02 04:43:22;;;;;;;3.00;1.30;;;;;;;11.65;86.86;95884.78;4205264;28;20622;-82
2023/11/02 04:45:27;;;;;;;2.27;1.37;;;;;;;11.64;87.23;95866.69;4209862;28;20613;-82
2023/11/02 04:47:30;;;;;;;1.87;1.30;;;;;;;11.66;87.09;95865.50;4174096;28;20621;-82
2023/11/02 04:49:34;;;;;;;3.13;1.30;;;;;;;11.70;86.92;95879.03;4162816;28;20700;-82
2023/11/02 04:51:37;;;;;;;1.60;1.30;;;;;;;11.74;84.68;95849.81;4179616;28;20649;-82
2023/11/02 04:53:40;;;;;;;2.67;1.30;;;;;;;11.77;84.56;95832.03;4192974;28;20722;-82
2023/11/02 04:55:43;;;;;;;1.90;1.40;;;;;;;11.80;84.70;95812.59;4191499;28;20612;-82
2023/11/02 04:57:46;;;;;;;2.00;1.30;;;;;;;11.77;85.07;95805.94;4162876;28;20649;-82
2023/11/02 04:59:50;;;;;;;2.70;1.40;;;;;;;11.79;85.79;95800.53;4191738;28;20614;-82
2023/11/02 05:01:55;;;;;;;1.80;1.30;;;;;;;11.79;86.70;95796.13;4154400;28;20657;-82
2023/11/02 05:04:00;;;;;;;1.57;1.20;;;;;;;11.80;87.67;95789.09;4192124;28;20662;-82
2023/11/02 05:06:03;;;;;;;2.00;1.40;;;;;;;11.82;87.34;95774.09;4164440;28;20639;-85
2023/11/02 05:08:08;;;;;;;1.80;1.30;;;;;;;11.81;84.28;95794.16;4190416;28;21086;-84
2023/11/02 05:10:12;;;;;;;2.63;1.40;;;;;;;11.83;84.95;95800.03;4183126;28;21235;-84
2023/11/02 05:12:14;;;;;;;1.70;1.27;;;;;;;11.86;85.19;95789.25;4192636;28;20995;-84
2023/11/02 05:14:17;;;;;;;1.60;1.10;;;;;;;11.90;83.79;95759.19;4177076;28;20719;-84
2023/11/02 05:16:20;;;;;;;2.10;1.33;;;;;;;11.94;83.54;95760.47;4177128;28;20701;-84
2023/11/02 05:18:25;;;;;;;2.10;1.20;;;;;;;11.98;83.26;95769.63;4174618;28;20678;-84
2023/11/02 05:20:28;;;;;;;1.90;1.20;;;;;;;11.99;83.44;95781.69;4186195;28;20710;-84
2023/11/02 05:22:31;;;;;;;2.17;1.23;;;;;;;12.03;82.10;95790.00;4162159;28;21011;-84
2023/11/02 05:24:34;;;;;;;3.00;1.20;;;;;;;12.04;83.06;95776.78;4176064;28;20652;-84
2023/11/02 05:26:39;;;;;;;2.90;1.47;;;;;;;12.04;82.85;95761.09;4171920;28;20634;-84
2023/11/02 05:28:42;;;;;;;3.57;1.70;;;;;;;12.08;83.42;95753.72;4188102;28;20627;-84
2023/11/02 05:30:45;;;;;;;1.83;1.43;;;;;;;12.07;81.68;95754.69;4185653;28;20765;-84
2023/11/02 05:32:49;;;;;;;2.40;1.60;;;;;;;12.06;82.06;95738.22;4187268;28;20642;-84
2023/11/02 05:34:53;;;;;;;2.63;1.30;;;;;;;12.07;82.70;95728.56;4157942;28;20621;-84
2023/11/02 05:36:56;;;;;;;1.90;1.23;;;;;;;12.04;82.24;95714.06;4171190;28;20738;-82
2023/11/02 05:38:59;;;;;;;3.60;1.27;;;;;;;12.04;82.39;95716.69;4178855;28;20628;-82
2023/11/02 05:41:03;;;;;;;2.23;1.40;;;;;;;12.06;81.22;95685.16;4203362;28;21246;-82
2023/11/02 05:43:06;;;;;;;1.80;1.00;;;;;;;12.09;81.59;95684.78;4178809;28;20663;-84
2023/11/02 05:45:10;;;;;;;1.67;1.27;;;;;;;12.07;81.96;95682.38;4189879;28;20758;-84
2023/11/02 05:47:13;;;;;;;2.87;1.30;;;;;;;12.08;81.93;95676.16;4194831;28;21194;-84
2023/11/02 05:49:16;;;;;;;1.97;1.30;;;;;;;12.11;80.97;95672.38;4177784;28;20711;-84
2023/11/02 05:51:21;;;;;;;1.70;1.33;;;;;;;12.13;82.53;95663.38;4187169;28;21211;-84
2023/11/02 05:53:24;;;;;;;1.90;1.17;;;;;;;12.12;80.24;95674.84;4190063;28;20683;-84
2023/11/02 05:55:27;;;;;;;1.50;1.20;;;;;;;12.12;80.03;95677.44;4194214;28;21164;-85
2023/11/02 05:57:30;;;;;;;1.90;1.47;;;;;;;12.11;79.90;95667.16;4190337;28;20628;-84
2023/11/02 05:59:32;;;;;;;1.83;0.93;;;;;;;12.12;80.41;95664.38;4192497;28;20615;-82
2023/11/02 06:01:36;;;;;;;3.00;1.23;;;;;;;12.13;82.02;95660.75;4204769;28;20620;-82
2023/11/02 06:03:39;;;;;;;2.93;1.20;;;;;;;12.14;79.56;95659.78;4188623;28;20640;-82
2023/11/02 06:05:42;;;;;;;2.23;1.10;;;;;;;12.16;81.35;95663.03;4181728;28;20711;-82
2023/11/02 06:07:47;;;;;;;1.83;1.37;;;;;;;12.16;80.37;95659.59;4175955;28;20671;-82
2023/11/02 06:09:50;;;;;;;1.93;0.90;;;;;;;12.16;80.39;95670.06;4195713;28;20728;-82
2023/11/02 06:11:53;;;;;;;2.67;1.10;;;;;;;12.16;79.88;95678.69;4179222;28;20739;-82
2023/11/02 06:14:00;;;;;;;1.63;1.00;;;;;;;12.22;80.70;95685.03;4170846;28;20620;-82
2023/11/02 06:16:04;;;;;;;1.60;1.07;;;;;;;12.22;79.95;95688.47;4194652;28;20638;-82
2023/11/02 06:18:07;;;;;;;2.97;1.20;;;;;;;12.25;80.22;95711.63;4196436;28;20612;-82
2023/11/02 06:20:11;;;;;;;2.30;1.17;;;;;;;12.28;79.55;95711.28;4154893;28;20613;-82
2023/11/02 06:22:14;;;;;;;1.40;1.07;;;;;;;12.31;80.06;95710.94;4176619;28;20698;-82
2023/11/02 06:24:18;;;;;;;1.67;1.00;;;;;;;12.32;80.46;95717.81;4189774;28;20670;-82
2023/11/02 06:26:22;;;;;;;1.40;0.90;;;;;;;12.36;79.44;95735.59;4192271;28;20744;-82
2023/11/02 06:28:25;;;;;;;1.83;1.20;;;;;;;12.39;79.22;95750.94;4177257;28;21108;-82
2023/11/02 06:30:28;;;;;;;1.60;1.10;;;;;;;12.44;80.98;95779.16;4164610;28;20647;-82
2023/11/02 06:32:31;;;;;;;2.53;1.00;;;;;;;12.50;80.53;95804.63;4157301;28;20636;-82
2023/11/02 06:34:39;;;;;;;1.40;1.10;;;;;;;12.50;82.49;95842.03;4162700;28;21245;-82
2023/11/02 06:36:42;;;;;;;2.03;1.00;;;;;;;12.51;79.79;95837.59;4176745;28;20681;-82
2023/11/02 06:38:46;;;;;;;1.70;0.80;;;;;;;12.51;79.65;95822.75;4177158;28;20718;-82
2023/11/02 06:40:50;;;;;;;1.50;1.10;;;;;;;12.49;81.10;95842.19;4176629;28;20626;-82
2023/11/02 06:42:54;;;;;;;2.20;0.77;;;;;;;12.51;80.66;95861.97;4205684;28;20623;-82
2023/11/02 06:44:58;;;;;;;2.23;0.83;;;;;;;12.52;79.86;95849.69;4156039;28;20700;-82
2023/11/02 06:47:01;;;;;;;2.30;0.83;;;;;;;12.53;83.16;95860.00;4189151;28;20665;-82
2023/11/02 06:49:04;;;;;;;2.47;1.00;;;;;;;12.58;86.14;95854.25;4175957;28;20649;-82
2023/11/02 06:51:08;;;;;;;1.80;1.10;;;;;;;12.50;86.73;95854.31;4195009;28;20714;-82
2023/11/02 06:53:12;;;;;;;2.30;1.13;;;;;;;12.48;88.32;95856.25;4207764;28;21159;-82
2023/11/02 06:55:15;;;;;;;2.23;1.07;;;;;;;12.46;87.18;95858.22;4193507;28;20608;-82
2023/11/02 06:57:19;;;;;;;1.20;0.90;;;;;;;12.43;85.24;95850.72;4172908;28;20650;-82
2023/11/02 06:59:22;;;;;;;2.87;1.10;;;;;;;12.45;88.86;95854.81;4180797;28;20972;-83
2023/11/02 07:01:26;;;;;;;6.97;3.80;;;;;;;12.45;90.56;95843.56;4159462;28;20634;-83
2023/11/02 07:03:28;;;;;;;4.10;3.20;;;;;;;12.38;91.34;95847.81;4194997;28;20681;-83
2023/11/02 07:05:33;;;;;;;2.83;2.00;;;;;;;12.38;92.44;95853.84;4193989;28;21003;-83
2023/11/02 07:07:35;;;;;;;2.27;1.73;;;;;;;12.35;93.50;95850.78;4158662;28;20629;-83
2023/11/02 07:09:42;;;;;;;2.37;1.70;;;;;;;12.32;92.94;95832.81;4181822;28;21197;-83
2023/11/02 07:11:45;;;;;;;1.77;1.30;;;;;;;12.33;94.52;95834.47;4169232;28;20766;-82
2023/11/02 07:13:49;;;;;;;2.90;1.30;;;;;;;12.32;93.34;95830.19;4161054;28;20633;-81
2023/11/02 07:15:52;;;;;;;1.93;1.23;;;;;;;12.29;95.19;95827.94;4157600;28;20675;-81
2023/11/02 07:17:55;;;;;;;3.60;1.50;;;;;;;12.27;94.65;95816.84;4176849;28;20640;-81
2023/11/02 07:19:58;;;;;;;2.80;1.00;;;;;;;12.28;95.72;95821.06;4174299;28;21317;-82
2023/11/02 07:22:02;;;;;;;3.60;1.63;;;;;;;12.24;93.47;95806.72;4177204;28;21184;-82
2023/11/02 07:24:06;;;;;;;2.23;1.27;;;;;;;12.25;93.00;95800.50;4157613;28;21029;-81
2023/11/02 07:26:09;;;;;;;2.90;1.40;;;;;;;12.24;95.25;95809.34;4162935;28;20662;-82
2023/11/02 07:28:13;;;;;;;2.23;1.47;;;;;;;12.21;94.68;95812.28;4160279;28;21068;-81
2023/11/02 07:30:17;;;;;;;2.47;1.17;;;;;;;12.19;95.92;95805.59;4187880;28;20623;-81
2023/11/02 07:32:20;;;;;;;3.50;1.63;;;;;;;12.18;95.17;95815.25;4174091;28;21022;-81
2023/11/02 07:34:24;;;;;;;2.30;1.30;;;;;;;12.17;96.23;95824.06;4183889;28;20751;-82
2023/11/02 07:36:27;;;;;;;1.80;1.33;;;;;;;12.18;94.57;95810.03;4174905;28;20633;-81
2023/11/02 07:38:30;;;;;;;2.80;1.00;;;;;;;12.16;95.62;95798.09;4171631;28;21114;-81
2023/11/02 07:40:33;;;;;;;1.50;1.10;;;;;;;12.07;96.57;95789.50;4176009;28;21384;-81
2023/11/02 07:42:38;;;;;;;4.57;1.40;;;;;;;11.98;98.46;95782.69;4169767;28;20629;-82
2023/11/02 07:44:40;;;;;;;3.43;1.33;;;;;;;11.89;98.22;95773.25;4159339;28;20633;-83
2023/11/02 07:46:44;;;;;;;1.97;1.10;;;;;;;11.86;97.25;95773.59;4195496;28;20708;-83
2023/11/02 07:48:48;;;;;;;4.07;1.87;;;;;;;11.83;97.57;95765.25;4186929;28;20764;-84
2023/11/02 07:50:52;;;;;;;2.20;1.10;;;;;;;11.82;98.14;95740.13;4188568;28;20640;-85
2023/11/02 07:52:55;;;;;;;1.70;1.10;;;;;;;11.81;98.26;95754.97;4171197;28;20671;-84
2023/11/02 07:54:58;;;;;;;2.03;1.17;;;;;;;11.82;96.62;95737.53;4194964;28;21300;-84
2023/11/02 07:57:07;;;;;;;2.00;1.30;;;;;;;11.79;96.03;95736.06;4190044;28;20711;-83
2023/11/02 07:59:10;;;;;;;2.30;1.20;;;;;;;11.82;97.33;95725.28;4188045;28;20726;-82
2023/11/02 08:01:16;;;;;;;1.60;1.00;;;;;;;11.87;96.85;95709.91;4201066;28;20661;-82
2023/11/02 08:03:21;;;;;;;2.60;1.10;;;;;;;11.88;97.27;95697.66;4170881;28;21476;-83
2023/11/02 08:05:25;;;;;;;1.27;0.80;;;;;;;11.88;97.16;95692.44;4183242;28;20706;-83
2023/11/02 08:07:27;;;;;;;0.97;0.60;;;;;;;11.87;95.79;95689.00;4166248;28;20632;-83
2023/11/02 08:09:30;;;;;;;2.20;0.90;;;;;;;11.89;97.28;95681.00;4156638;28;20966;-83
2023/11/02 08:11:37;;;;;;;1.57;0.77;;;;;;;11.92;96.83;95685.88;4155347;28;20633;-83
2023/11/02 08:13:40;;;;;;;3.30;0.87;;;;;;;11.96;97.93;95685.38;4173178;28;20639;-83
2023/11/02 08:15:44;;;;;;;1.40;1.00;;;;;;;11.93;95.96;95667.41;4192056;28;20639;-84
2023/11/02 08:17:48;;;;;;;1.77;1.00;;;;;;;11.96;97.79;95680.13;4187075;28;20671;-83
2023/11/02 08:19:52;;;;;;;1.77;0.90;;;;;;;11.98;96.62;95672.97;4166046;28;21046;-85
2023/11/02 08:21:55;;;;;;;2.90;1.20;;;;;;;12.02;95.85;95669.00;4177133;28;20641;-86
2023/11/02 08:23:59;;;;;;;1.80;1.20;;;;;;;12.05;97.27;95663.44;4204775;28;20645;-84
2023/11/02 08:26:02;;;;;;;3.07;1.07;;;;;;;12.06;97.00;95662.47;4172466;28;20644;-84
2023/11/02 08:28:05;;;;;;;3.07;0.90;;;;;;;12.11;97.16;95652.28;4175178;28;20726;-84
2023/11/02 08:30:09;;;;;;;1.70;0.93;;;;;;;12.18;96.81;95641.94;4174314;28;20612;-84
2023/11/02 08:32:12;;;;;;;1.90;1.00;;;;;;;12.21;97.76;95650.28;4184745;28;20725;-83
2023/11/02 08:34:15;;;;;;;2.10;1.30;;;;;;;12.25;95.48;95638.47;4169055;28;20748;-83
2023/11/02 08:36:20;;;;;;;8.83;5.50;;;;;;;12.27;98.34;95645.16;4192910;28;20721;-83
2023/11/02 08:38:23;;;;;;;1.67;0.90;;;;;;;12.28;97.72;95644.19;4182755;28;20628;-83
2023/11/02 08:40:30;;;;;;;1.77;1.10;;;;;;;12.27;95.60;95647.75;4157856;28;20625;-83
2023/11/02 08:42:33;;;;;;;2.33;1.07;;;;;;;12.28;95.34;95643.34;4154193;28;20633;-84
2023/11/02 08:44:40;;;;;;;2.53;1.17;;;;;;;12.29;97.12;95651.00;4173550;28;20628;-82
2023/11/02 08:46:47;;;;;;;1.83;0.80;;;;;;;12.31;96.28;95638.59;4179669;28;20656;-83
2023/11/02 08:48:53;;;;;;;2.10;0.90;;;;;;;12.34;96.52;95658.31;4170650;28;20687;-82
2023/11/02 08:50:56;;;;;;;3.87;1.30;;;;;;;12.37;95.84;95644.91;4166290;28;21207;-83
2023/11/02 08:53:01;;;;;;;2.23;1.10;;;;;;;12.41;96.65;95644.38;4184856;28;21236;-83
2023/11/02 08:55:08;;;;;;;1.83;1.20;;;;;;;12.44;96.61;95638.00;4185144;28;20626;-82
2023/11/02 08:57:12;;;;;;;1.80;1.00;;;;;;;12.45;95.84;95637.03;4173235;28;20724;-83
2023/11/02 08:59:15;;;;;;;2.43;1.70;;;;;;;12.47;96.60;95642.88;4189011;28;21014;-83
2023/11/02 09:01:19;;;;;;;2.50;1.60;;;;;;;12.48;96.97;95640.09;4183039;28;20623;-82
2023/11/02 09:03:22;;;;;;;2.20;1.43;;;;;;;12.51;97.63;95638.91;4171947;28;21139;-83
2023/11/02 09:05:26;;;;;;;1.70;1.27;;;;;;;12.55;97.93;95634.97;4162543;28;20706;-82
2023/11/02 09:07:31;;;;;;;2.40;1.40;;;;;;;12.57;98.07;95635.59;4187071;28;20656;-82
2023/11/02 09:09:35;;;;;;;2.20;1.53;;;;;;;12.59;99.49;95639.66;4184196;28;21094;-83
2023/11/02 09:11:39;;;;;;;2.10;1.30;;;;;;;12.62;98.67;95630.66;4186354;28;20643;-83
2023/11/02 09:13:42;;;;;;;2.67;1.40;;;;;;;12.62;99.69;95621.00;4179053;28;20621;-82
2023/11/02 09:15:45;;;;;;;2.70;1.30;;;;;;;12.60;99.07;95619.53;4160630;28;20634;-83
2023/11/02 09:17:48;;;;;;;2.20;1.43;;;;;;;12.61;100.00;95623.78;4180138;28;21045;-83
2023/11/02 09:19:52;;;;;;;2.43;1.40;;;;;;;12.61;100.00;95624.59;4156807;28;20695;-83
2023/11/02 09:21:55;;;;;;;8.77;4.87;;;;;;;12.62;100.00;95625.44;4203736;28;20653;-82
2023/11/02 09:23:59;;;;;;;15.07;10.43;;;;;;;12.64;99.85;95628.66;4158772;28;20671;-83
2023/11/02 09:26:05;;;;;;;9.53;5.77;;;;;;;12.67;99.76;95630.94;4176432;28;20648;-83
2023/11/02 09:28:08;;;;;;;8.80;3.70;;;;;;;12.69;99.92;95633.19;4159928;28;20616;-82
2023/11/02 09:30:13;;;;;;;3.30;1.30;;;;;;;12.71;98.80;95625.97;4196484;28;20682;-82
2023/11/02 09:32:16;;;;;;;3.13;1.53;;;;;;;12.73;98.80;95612.72;4176800;28;20662;-81
2023/11/02 09:34:19;;;;;;;2.63;1.50;;;;;;;12.75;98.28;95611.56;4176128;28;20636;-81
2023/11/02 09:36:23;;;;;;;2.47;1.70;;;;;;;12.75;97.47;95611.56;4178378;28;20727;-82
2023/11/02 09:38:26;;;;;;;2.17;1.40;;;;;;;12.77;98.16;95601.72;4195557;28;21043;-82
2023/11/02 09:40:29;;;;;;;2.10;1.33;;;;;;;12.77;98.06;95609.56;4171963;28;21444;-82
2023/11/02 09:42:33;;;;;;;3.20;1.50;;;;;;;12.75;98.81;95622.03;4174225;28;20643;-81
2023/11/02 09:44:37;;;;;;;3.80;1.57;;;;;;;12.76;98.33;95626.28;4194025;28;20631;-82
2023/11/02 09:46:40;;;;;;;3.07;1.50;;;;;;;12.78;99.29;95623.47;4159209;28;20658;-81
2023/11/02 09:48:44;;;;;;;2.30;1.33;;;;;;;12.80;100.00;95639.78;4174222;28;20631;-81
2023/11/02 09:50:49;;;;;;;2.63;1.57;;;;;;;12.81;99.15;95644.06;4172053;28;20632;-82
2023/11/02 09:52:54;;;;;;;2.47;1.30;;;;;;;12.78;100.00;95641.78;4175018;28;20740;-80